Time;durP1;ratioP1;P1;durP2;ratioP2;P2;SDS_P1;SDS_P2;PMS_P1;PMS_P2;Temp;Humidity;BMP_temperature;BMP_pressure;BME280_temperature;BME280_humidity;BME280_pressure;Samples;Min_cycle;Max_cycle;Signal;HPM_P1;HPM_P2
2021/11/12 00:03:01;;;;;;;16.33;11.75;;;;;;;;;;143743;633;47022;-88
2021/11/12 00:14:26;;;;;;;20.45;11.73;;;;;;;;;;143746;598;46912;-88
2021/11/12 00:17:13;;;;;;;17.67;10.80;;;;;;;;;;143746;610;47018;-85
2021/11/12 00:19:44;;;;;;;21.42;12.23;;;;;;;;;;143750;571;47022;-87
2021/11/12 00:22:16;;;;;;;18.37;12.65;;;;;;;;;;143745;594;46021;-87
2021/11/12 00:24:53;;;;;;;22.08;13.27;;;;;;;;;;143733;602;46022;-88
2021/11/12 00:27:33;;;;;;;25.10;15.80;;;;;;;;;;143743;615;47019;-86
2021/11/12 00:39:16;;;;;;;35.95;19.83;;;;;;;;;;143729;569;46018;-85
2021/11/12 00:48:16;;;;;;;28.15;19.58;;;;;;;;;;143727;575;46022;-87
2021/11/12 00:56:51;;;;;;;28.33;17.55;;;;;;;;;;143736;620;47019;-86
2021/11/12 00:59:43;;;;;;;24.37;17.00;;;;;;;;;;143733;644;46022;-87
2021/11/12 01:02:19;;;;;;;28.50;19.10;;;;;;;;;;143731;569;46012;-86
2021/11/12 01:05:12;;;;;;;20.02;14.87;;;;;;;;;;143733;652;46023;-87
2021/11/12 01:07:54;;;;;;;;;;;;;;;;;;143735;975;46020;-88
2021/11/12 01:10:48;;;;;;;;;;;;;;;;;;;;;
2021/11/12 01:13:18;;;;;;;23.30;10.18;;;;;;;;;;143732;658;46016;-87
2021/11/12 01:15:45;;;;;;;14.05;10.32;;;;;;;;;;143731;634;47022;-89
2021/11/12 01:18:14;;;;;;;15.60;10.38;;;;;;;;;;143727;622;47020;-89
2021/11/12 01:20:41;;;;;;;20.30;13.80;;;;;;;;;;143728;619;46023;-87
2021/11/12 01:23:12;;;;;;;22.73;12.60;;;;;;;;;;143729;610;47018;-88
2021/11/12 01:25:39;;;;;;;25.90;12.68;;;;;;;;;;143732;583;46030;-87
2021/11/12 01:28:16;;;;;;;20.58;11.18;;;;;;;;;;143730;583;47018;-88
2021/11/12 01:30:49;;;;;;;19.37;12.55;;;;;;;;;;143730;577;46022;-87
2021/11/12 01:33:15;;;;;;;23.27;13.13;;;;;;;;;;143729;639;47018;-88
2021/11/12 01:35:43;;;;;;;19.35;12.23;;;;;;;;;;143739;585;47022;-87
2021/11/12 01:38:11;;;;;;;21.35;11.70;;;;;;;;;;143745;580;47020;-87
2021/11/12 01:40:38;;;;;;;22.20;13.60;;;;;;;;;;143745;567;46916;-87
2021/11/12 01:43:19;;;;;;;20.15;13.35;;;;;;;;;;143746;708;46010;-87
2021/11/12 01:46:24;;;;;;;22.13;14.50;;;;;;;;;;143747;564;46010;-89
2021/11/12 01:54:42;;;;;;;23.65;13.20;;;;;;;;;;143745;604;46010;-88
2021/11/12 02:00:00;;;;;;;23.67;13.90;;;;;;;;;;143746;576;47018;-88
2021/11/12 02:02:27;;;;;;;23.33;13.65;;;;;;;;;;143743;601;46011;-88
2021/11/12 02:04:55;;;;;;;24.30;12.85;;;;;;;;;;143747;580;46019;-88
2021/11/12 02:07:22;;;;;;;19.62;12.50;;;;;;;;;;143746;579;47020;-89
2021/11/12 02:09:48;;;;;;;23.75;13.38;;;;;;;;;;143743;570;47020;-89
2021/11/12 02:12:23;;;;;;;20.50;11.80;;;;;;;;;;143744;607;46023;-89
2021/11/12 02:14:52;;;;;;;15.60;10.52;;;;;;;;;;143745;589;47018;-89
2021/11/12 02:17:21;;;;;;;20.27;12.88;;;;;;;;;;143749;573;46021;-88
2021/11/12 02:19:57;;;;;;;20.62;10.82;;;;;;;;;;143744;575;47021;-88
2021/11/12 02:22:27;;;;;;;18.23;11.68;;;;;;;;;;143744;591;46022;-88
2021/11/12 02:25:01;;;;;;;19.77;13.13;;;;;;;;;;143747;602;47018;-87
2021/11/12 02:27:37;;;;;;;19.17;11.80;;;;;;;;;;143746;643;46020;-88
2021/11/12 02:30:04;;;;;;;18.15;10.93;;;;;;;;;;143743;595;47020;-87
2021/11/12 02:32:32;;;;;;;17.92;9.73;;;;;;;;;;143744;564;46010;-87
2021/11/12 02:35:01;;;;;;;17.52;10.82;;;;;;;;;;143746;643;46019;-87
2021/11/12 02:37:31;;;;;;;17.50;10.73;;;;;;;;;;143747;607;46010;-88
2021/11/12 02:39:59;;;;;;;16.98;10.18;;;;;;;;;;143744;612;47020;-88
2021/11/12 02:42:26;;;;;;;13.52;8.85;;;;;;;;;;143743;589;47022;-90
2021/11/12 02:44:53;;;;;;;17.15;9.55;;;;;;;;;;143747;598;46018;-88
2021/11/12 02:47:21;;;;;;;16.90;10.30;;;;;;;;;;143747;638;47020;-87
2021/11/12 02:49:48;;;;;;;18.23;9.68;;;;;;;;;;143745;566;47021;-88
2021/11/12 02:52:19;;;;;;;25.40;11.80;;;;;;;;;;143743;630;46913;-88
2021/11/12 02:54:47;;;;;;;17.60;10.52;;;;;;;;;;143748;562;46018;-87
2021/11/12 02:57:14;;;;;;;16.08;10.90;;;;;;;;;;143745;577;46010;-87
2021/11/12 02:59:42;;;;;;;17.20;11.65;;;;;;;;;;143743;596;47020;-89
2021/11/12 03:02:09;;;;;;;19.67;10.77;;;;;;;;;;143744;597;46010;-87
2021/11/12 03:04:36;;;;;;;16.98;8.93;;;;;;;;;;143745;579;47019;-88
2021/11/12 03:07:03;;;;;;;18.15;11.18;;;;;;;;;;143746;580;46010;-89
2021/11/12 03:09:32;;;;;;;18.83;11.25;;;;;;;;;;143744;613;47020;-89
2021/11/12 03:12:00;;;;;;;17.60;10.23;;;;;;;;;;143744;641;46023;-88
2021/11/12 03:14:30;;;;;;;16.10;10.00;;;;;;;;;;143730;569;47018;-90
2021/11/12 03:16:57;;;;;;;23.45;12.52;;;;;;;;;;143746;569;47021;-87
2021/11/12 03:19:26;;;;;;;23.08;11.65;;;;;;;;;;143744;602;47021;-87
2021/11/12 03:22:01;;;;;;;16.15;8.70;;;;;;;;;;143744;574;46010;-91
2021/11/12 03:24:32;;;;;;;13.13;7.75;;;;;;;;;;143745;593;47018;-88
2021/11/12 04:04:11;;;;;;;31.98;19.77;;;;;;;;;;143745;581;46019;-87
2021/11/12 04:06:51;;;;;;;18.60;14.57;;;;;;;;;;143748;635;46022;-88
2021/11/12 04:21:25;;;;;;;14.27;10.00;;;;;;;;;;143746;594;46018;-87
2021/11/12 05:44:56;;;;;;;27.98;15.52;;;;;;;;;;143732;711;47018;-87
2021/11/12 05:50:17;;;;;;;32.53;16.25;;;;;;;;;;143731;571;46012;-89
2021/11/12 05:55:29;;;;;;;33.58;19.30;;;;;;;;;;143730;569;46018;-87
2021/11/12 05:57:58;;;;;;;56.90;30.20;;;;;;;;;;143730;678;46012;-87
2021/11/12 06:00:26;;;;;;;28.50;17.90;;;;;;;;;;143728;585;47018;-89
2021/11/12 06:02:53;;;;;;;29.70;19.70;;;;;;;;;;143734;605;46013;-87
2021/11/12 06:05:19;;;;;;;34.25;18.80;;;;;;;;;;143729;587;47018;-85
2021/11/12 06:07:48;;;;;;;37.10;21.87;;;;;;;;;;143731;569;46012;-86
2021/11/12 06:10:18;;;;;;;44.92;24.25;;;;;;;;;;143730;593;47019;-86
2021/11/12 06:12:45;;;;;;;35.60;21.48;;;;;;;;;;143731;576;47012;-85
2021/11/12 06:15:12;;;;;;;31.30;21.20;;;;;;;;;;143730;596;47020;-87
2021/11/12 06:17:39;;;;;;;31.27;17.65;;;;;;;;;;143730;593;47023;-86
2021/11/12 06:20:07;;;;;;;33.90;18.83;;;;;;;;;;143731;588;46018;-86
2021/11/12 06:22:34;;;;;;;24.90;17.92;;;;;;;;;;143734;614;46020;-84
2021/11/12 06:25:03;;;;;;;27.35;17.25;;;;;;;;;;143729;569;46020;-85
2021/11/12 06:27:29;;;;;;;33.55;18.37;;;;;;;;;;143731;576;46012;-85
2021/11/12 06:29:56;;;;;;;29.55;18.50;;;;;;;;;;143731;592;47018;-86
2021/11/12 06:32:23;;;;;;;33.33;20.00;;;;;;;;;;143734;660;46013;-85
2021/11/12 06:34:51;;;;;;;30.50;19.62;;;;;;;;;;143735;612;47020;-83
2021/11/12 06:37:18;;;;;;;26.95;19.67;;;;;;;;;;143745;585;46010;-84
2021/11/12 06:39:45;;;;;;;29.05;19.73;;;;;;;;;;143748;637;46019;-84
2021/11/12 06:42:20;;;;;;;30.25;21.55;;;;;;;;;;143745;603;46022;-84
2021/11/12 06:49:17;;;;;;;34.42;20.33;;;;;;;;;;143735;563;47020;-85
2021/11/12 06:50:23;;;;;;;47.75;21.77;;;;;;;;;;143748;608;46010;-86
2021/11/12 06:52:52;;;;;;;30.52;20.17;;;;;;;;;;143750;566;46020;-86
2021/11/12 06:55:19;;;;;;;40.90;20.77;;;;;;;;;;143745;612;47021;-86
2021/11/12 06:57:47;;;;;;;30.80;21.70;;;;;;;;;;143746;585;46010;-84
2021/11/12 07:00:17;;;;;;;36.08;21.15;;;;;;;;;;143746;591;47018;-85
2021/11/12 07:02:45;;;;;;;27.20;20.73;;;;;;;;;;143748;664;47023;-86
2021/11/12 07:05:14;;;;;;;36.72;20.67;;;;;;;;;;143744;616;47020;-85
2021/11/12 07:07:41;;;;;;;35.90;19.58;;;;;;;;;;143746;620;46010;-87
2021/11/12 07:10:10;;;;;;;26.15;18.50;;;;;;;;;;143745;610;47019;-85
2021/11/12 07:12:37;;;;;;;26.05;18.02;;;;;;;;;;143750;588;46020;-86
2021/11/12 07:15:04;;;;;;;25.45;18.12;;;;;;;;;;143746;577;47018;-85
2021/11/12 07:17:32;;;;;;;24.08;17.05;;;;;;;;;;143748;566;46053;-87
2021/11/12 07:19:59;;;;;;;25.37;18.33;;;;;;;;;;143745;645;47018;-86
2021/11/12 07:22:26;;;;;;;25.00;18.25;;;;;;;;;;143738;572;46046;-86
2021/11/12 07:24:53;;;;;;;26.42;18.42;;;;;;;;;;143748;575;46021;-85
2021/11/12 07:27:20;;;;;;;24.98;17.42;;;;;;;;;;143745;591;46010;-84
2021/11/12 07:29:48;;;;;;;31.27;17.35;;;;;;;;;;143747;587;47018;-85
2021/11/12 07:32:17;;;;;;;27.58;16.27;;;;;;;;;;143753;604;46020;-84
2021/11/12 07:34:46;;;;;;;24.90;17.50;;;;;;;;;;143745;582;47020;-84
2021/11/12 07:37:13;;;;;;;23.38;15.75;;;;;;;;;;143746;585;46010;-84
2021/11/12 07:39:50;;;;;;;26.80;14.98;;;;;;;;;;143746;604;47019;-85
2021/11/12 07:42:33;;;;;;;27.98;15.68;;;;;;;;;;143748;594;46010;-85
2021/11/12 07:45:09;;;;;;;25.48;16.45;;;;;;;;;;143746;587;47020;-84
2021/11/12 07:47:36;;;;;;;30.58;15.88;;;;;;;;;;143735;586;46012;-84
2021/11/12 07:50:07;;;;;;;27.67;15.63;;;;;;;;;;143749;571;46018;-84
2021/11/12 07:52:38;;;;;;;24.67;14.80;;;;;;;;;;143748;606;46010;-85
2021/11/12 07:55:08;;;;;;;33.38;17.08;;;;;;;;;;143746;573;47018;-84
2021/11/12 07:57:35;;;;;;;25.02;16.83;;;;;;;;;;143746;570;46010;-84
2021/11/12 08:00:15;;;;;;;21.12;14.57;;;;;;;;;;143734;578;47018;-83
2021/11/12 08:02:43;;;;;;;30.70;15.00;;;;;;;;;;143748;564;46010;-84
2021/11/12 08:05:19;;;;;;;22.98;14.32;;;;;;;;;;143747;566;47020;-83
2021/11/12 08:07:52;;;;;;;24.65;14.13;;;;;;;;;;143748;647;46010;-81
2021/11/12 08:10:22;;;;;;;24.58;16.17;;;;;;;;;;143748;611;47019;-83
2021/11/12 08:13:05;;;;;;;19.10;14.30;;;;;;;;;;143747;569;47022;-83
2021/11/12 08:15:46;;;;;;;23.83;14.07;;;;;;;;;;143747;627;47019;-83
2021/11/12 08:18:38;;;;;;;25.85;15.55;;;;;;;;;;143745;579;46010;-84
2021/11/12 08:21:11;;;;;;;22.00;15.95;;;;;;;;;;143746;613;47018;-83
2021/11/12 08:26:38;;;;;;;18.95;12.23;;;;;;;;;;143750;575;46018;-85
2021/11/12 08:37:48;;;;;;;12.98;7.25;;;;;;;;;;143749;584;47018;-86
2021/11/12 08:43:04;;;;;;;9.18;5.75;;;;;;;;;;143746;594;46018;-83
2021/11/12 08:45:38;;;;;;;12.10;6.55;;;;;;;;;;143749;608;47022;-84
2021/11/12 08:48:15;;;;;;;9.00;5.78;;;;;;;;;;143748;606;47021;-84
2021/11/12 08:50:43;;;;;;;12.43;5.82;;;;;;;;;;143747;628;46010;-83
2021/11/12 08:53:13;;;;;;;11.65;6.35;;;;;;;;;;143748;694;46019;-84
2021/11/12 08:55:43;;;;;;;11.88;7.05;;;;;;;;;;143749;564;46023;-85
2021/11/12 08:58:12;;;;;;;7.93;6.35;;;;;;;;;;143747;620;47020;-83
2021/11/12 09:00:41;;;;;;;13.13;6.22;;;;;;;;;;143746;569;46010;-84
2021/11/12 09:03:10;;;;;;;13.52;5.53;;;;;;;;;;143747;620;47018;-84
2021/11/12 09:05:37;;;;;;;9.77;6.37;;;;;;;;;;143748;799;46010;-84
2021/11/12 09:08:05;;;;;;;14.87;5.68;;;;;;;;;;143746;578;46910;-85
2021/11/12 09:10:32;;;;;;;18.05;7.62;;;;;;;;;;143746;569;46010;-83
2021/11/12 09:16:00;;;;;;;16.60;9.75;;;;;;;;;;143748;602;46024;-84
2021/11/12 09:18:27;;;;;;;18.80;10.35;;;;;;;;;;143747;706;47018;-85
2021/11/12 09:20:54;;;;;;;14.40;8.85;;;;;;;;;;143745;637;46916;-83
2021/11/12 09:23:21;;;;;;;17.92;8.93;;;;;;;;;;143744;619;47019;-84
2021/11/12 09:25:48;;;;;;;16.48;8.93;;;;;;;;;;143750;565;46010;-84
2021/11/12 09:28:15;;;;;;;15.15;8.40;;;;;;;;;;143746;575;47020;-86
2021/11/12 09:30:42;;;;;;;14.57;7.80;;;;;;;;;;143745;611;47023;-85
2021/11/12 09:33:09;;;;;;;21.98;8.25;;;;;;;;;;143748;766;47018;-84
2021/11/12 09:35:39;;;;;;;20.55;8.65;;;;;;;;;;143748;677;46022;-84
2021/11/12 09:38:06;;;;;;;17.15;8.85;;;;;;;;;;143745;583;47019;-84
2021/11/12 09:40:33;;;;;;;16.90;8.70;;;;;;;;;;143745;643;46010;-83
2021/11/12 09:43:00;;;;;;;18.55;10.05;;;;;;;;;;143745;586;47018;-85
2021/11/12 09:45:27;;;;;;;16.23;7.53;;;;;;;;;;143749;580;46011;-84
2021/11/12 09:47:54;;;;;;;25.25;8.55;;;;;;;;;;143740;623;47018;-85
2021/11/12 09:50:29;;;;;;;18.67;10.02;;;;;;;;;;143747;564;46010;-84
2021/11/12 09:52:58;;;;;;;16.80;9.23;;;;;;;;;;143747;575;47019;-83
2021/11/12 09:55:25;;;;;;;11.40;9.95;;;;;;;;;;143749;585;46020;-85
2021/11/12 09:57:52;;;;;;;14.43;9.35;;;;;;;;;;143749;779;46018;-85
2021/11/12 10:00:23;;;;;;;22.98;10.65;;;;;;;;;;143746;578;46011;-87
2021/11/12 10:02:52;;;;;;;23.25;10.38;;;;;;;;;;143747;665;47018;-84
2021/11/12 10:05:47;;;;;;;17.55;10.52;;;;;;;;;;143752;613;46010;-84
2021/11/12 10:08:35;;;;;;;19.37;10.70;;;;;;;;;;143753;713;45019;-83
2021/11/12 10:11:23;;;;;;;21.85;10.23;;;;;;;;;;143752;665;45915;-84
2021/11/12 10:13:59;;;;;;;18.00;9.35;;;;;;;;;;143747;607;46018;-85
2021/11/12 10:16:42;;;;;;;18.40;9.38;;;;;;;;;;143748;587;47022;-84
2021/11/12 10:19:20;;;;;;;21.50;9.18;;;;;;;;;;143748;615;47018;-86
2021/11/12 10:22:03;;;;;;;16.23;9.18;;;;;;;;;;143747;621;46010;-84
2021/11/12 10:24:34;;;;;;;21.60;9.38;;;;;;;;;;143749;803;46018;-86
2021/11/12 10:27:15;;;;;;;16.17;7.15;;;;;;;;;;143750;626;46020;-84
2021/11/12 10:29:48;;;;;;;10.50;5.95;;;;;;;;;;143746;660;47020;-84
2021/11/12 10:32:21;;;;;;;10.43;5.62;;;;;;;;;;143745;604;46010;-84
2021/11/12 10:34:50;;;;;;;9.70;5.37;;;;;;;;;;143751;565;45018;-84
2021/11/12 10:37:29;;;;;;;7.57;4.97;;;;;;;;;;143745;573;46044;-83
2021/11/12 10:40:02;;;;;;;7.62;4.97;;;;;;;;;;143744;588;47021;-84
2021/11/12 10:42:35;;;;;;;8.23;4.65;;;;;;;;;;143745;627;46022;-84
2021/11/12 10:45:19;;;;;;;9.13;4.72;;;;;;;;;;143748;575;47018;-84
2021/11/12 10:47:55;;;;;;;7.82;5.75;;;;;;;;;;143751;620;46020;-85
2021/11/12 10:50:25;;;;;;;10.82;5.68;;;;;;;;;;143746;636;47020;-84
2021/11/12 10:52:56;;;;;;;11.02;6.05;;;;;;;;;;143746;601;46011;-85
2021/11/12 10:55:24;;;;;;;12.32;6.57;;;;;;;;;;143748;576;47018;-84
2021/11/12 10:57:55;;;;;;;13.30;6.10;;;;;;;;;;143750;563;46022;-85
2021/11/12 11:00:45;;;;;;;8.30;5.22;;;;;;;;;;143748;576;46021;-83
2021/11/12 11:03:15;;;;;;;11.57;4.90;;;;;;;;;;143745;630;46010;-84
2021/11/12 11:06:07;;;;;;;14.07;6.05;;;;;;;;;;143747;629;46018;-85
2021/11/12 11:08:35;;;;;;;12.15;3.97;;;;;;;;;;143745;625;47013;-85
2021/11/12 11:11:06;;;;;;;14.05;4.97;;;;;;;;;;143749;581;47020;-84
2021/11/12 11:13:38;;;;;;;16.65;4.72;;;;;;;;;;143746;567;46010;-83
2021/11/12 11:16:16;;;;;;;11.88;3.85;;;;;;;;;;143746;577;47016;-82
2021/11/12 11:18:44;;;;;;;7.32;3.87;;;;;;;;;;143751;594;46022;-84
2021/11/12 11:24:09;;;;;;;15.18;7.85;;;;;;;;;;143746;585;46023;-83
2021/11/12 11:26:44;;;;;;;10.88;3.95;;;;;;;;;;143747;620;47018;-85
2021/11/12 11:29:26;;;;;;;8.68;4.35;;;;;;;;;;143747;594;46011;-84
2021/11/12 11:31:55;;;;;;;9.23;4.37;;;;;;;;;;143745;569;47021;-86
2021/11/12 11:34:23;;;;;;;12.93;5.05;;;;;;;;;;143744;572;46010;-85
2021/11/12 11:36:52;;;;;;;11.30;5.00;;;;;;;;;;143743;603;47019;-85
2021/11/12 11:39:19;;;;;;;8.05;5.28;;;;;;;;;;143746;610;46010;-84
2021/11/12 11:41:46;;;;;;;9.00;5.53;;;;;;;;;;143742;574;47020;-84
2021/11/12 11:44:19;;;;;;;8.82;5.05;;;;;;;;;;143743;588;46914;-85
2021/11/12 11:46:49;;;;;;;11.35;6.70;;;;;;;;;;143744;621;47018;-84
2021/11/12 11:49:27;;;;;;;10.52;6.15;;;;;;;;;;143745;569;47020;-85
2021/11/12 11:52:00;;;;;;;7.68;5.53;;;;;;;;;;143747;569;46020;-84
2021/11/12 11:54:29;;;;;;;7.13;5.07;;;;;;;;;;143744;575;46010;-85
2021/11/12 11:57:00;;;;;;;8.63;6.80;;;;;;;;;;143742;565;47018;-84
2021/11/12 11:59:37;;;;;;;13.57;6.28;;;;;;;;;;143747;605;46021;-84
2021/11/12 12:02:21;;;;;;;9.52;5.30;;;;;;;;;;143744;581;47021;-83
2021/11/12 12:04:56;;;;;;;12.55;7.18;;;;;;;;;;143742;593;46010;-85
2021/11/12 12:07:39;;;;;;;16.42;5.85;;;;;;;;;;143744;632;47019;-83
2021/11/12 12:10:37;;;;;;;6.65;5.20;;;;;;;;;;143748;674;46010;-84
2021/11/12 12:13:05;;;;;;;9.32;5.15;;;;;;;;;;143745;573;46022;-84
2021/11/12 12:15:36;;;;;;;14.18;6.20;;;;;;;;;;143745;570;46011;-84
2021/11/12 12:18:19;;;;;;;13.10;6.25;;;;;;;;;;143744;622;47018;-84
2021/11/12 12:21:18;;;;;;;11.15;6.40;;;;;;;;;;143746;611;46010;-83
2021/11/12 13:24:18;;;;;;;8.43;4.32;;;;;;;;;;143744;586;47023;-85
2021/11/12 13:26:58;;;;;;;6.47;4.00;;;;;;;;;;143746;590;46018;-84
2021/11/12 13:29:25;;;;;;;7.68;4.47;;;;;;;;;;143750;569;45023;-86
2021/11/12 13:32:03;;;;;;;5.90;3.87;;;;;;;;;;143746;575;47020;-86
2021/11/12 13:34:47;;;;;;;6.62;4.20;;;;;;;;;;143738;575;47022;-85
2021/11/12 13:37:23;;;;;;;10.50;6.50;;;;;;;;;;143730;591;47019;-85
2021/11/12 13:40:13;;;;;;;11.00;7.50;;;;;;;;;;143732;566;46032;-86
2021/11/12 13:42:48;;;;;;;7.25;4.10;;;;;;;;;;143730;623;47022;-85
2021/11/12 13:45:20;;;;;;;8.35;5.22;;;;;;;;;;143730;604;46012;-87
2021/11/12 13:48:09;;;;;;;12.53;4.90;;;;;;;;;;143730;605;47018;-86
2021/11/12 13:50:40;;;;;;;8.85;5.35;;;;;;;;;;143732;609;46021;-86
2021/11/12 13:53:07;;;;;;;13.05;7.97;;;;;;;;;;143728;624;47021;-87
2021/11/12 13:55:38;;;;;;;11.63;7.93;;;;;;;;;;143730;579;46022;-86
2021/11/12 13:58:06;;;;;;;10.82;6.47;;;;;;;;;;143730;567;47018;-86
2021/11/12 14:00:34;;;;;;;10.60;5.65;;;;;;;;;;143731;627;46012;-84
2021/11/12 14:03:13;;;;;;;10.23;5.82;;;;;;;;;;143731;640;46014;-85
2021/11/12 14:05:55;;;;;;;11.38;5.32;;;;;;;;;;143730;713;46012;-86
2021/11/12 14:08:21;;;;;;;12.40;4.85;;;;;;;;;;143730;574;48018;-84
2021/11/12 14:10:53;;;;;;;10.82;5.70;;;;;;;;;;143731;652;46022;-84
2021/11/12 14:13:45;;;;;;;9.63;4.28;;;;;;;;;;143725;589;47019;-84
2021/11/12 14:16:15;;;;;;;12.98;4.78;;;;;;;;;;143729;573;46916;-83
2021/11/12 14:22:45;;;;;;;8.43;5.37;;;;;;;;;;143733;586;46012;-85
2021/11/12 14:25:29;;;;;;;8.25;4.93;;;;;;;;;;143730;569;47020;-85
2021/11/12 14:28:21;;;;;;;19.67;8.27;;;;;;;;;;143728;572;46914;-85
2021/11/12 14:34:22;;;;;;;12.77;5.43;;;;;;;;;;143730;582;47012;-85
2021/11/12 14:37:07;;;;;;;22.02;7.05;;;;;;;;;;143743;589;47021;-86
2021/11/12 14:39:48;;;;;;;17.55;7.30;;;;;;;;;;143745;577;46010;-84
2021/11/12 14:42:37;;;;;;;11.77;4.82;;;;;;;;;;143742;628;47018;-84
2021/11/12 14:45:27;;;;;;;17.52;8.18;;;;;;;;;;143746;597;46010;-84
2021/11/12 14:48:19;;;;;;;12.37;6.00;;;;;;;;;;143745;590;47018;-83
2021/11/12 14:53:52;;;;;;;12.95;6.70;;;;;;;;;;143749;672;46018;-86
2021/11/12 14:56:22;;;;;;;29.65;15.60;;;;;;;;;;143748;596;46010;-84
2021/11/12 14:58:57;;;;;;;20.65;11.48;;;;;;;;;;143744;564;47019;-85
2021/11/12 15:01:26;;;;;;;13.40;8.50;;;;;;;;;;143744;628;46010;-85
2021/11/12 15:03:53;;;;;;;11.60;7.85;;;;;;;;;;143744;638;46018;-85
2021/11/12 15:06:24;;;;;;;11.02;6.97;;;;;;;;;;143748;596;46010;-84
2021/11/12 15:08:54;;;;;;;11.63;7.80;;;;;;;;;;143743;566;47020;-85
2021/11/12 15:11:27;;;;;;;10.75;6.68;;;;;;;;;;143745;576;46010;-85
2021/11/12 15:14:02;;;;;;;16.52;7.37;;;;;;;;;;143745;579;47019;-86
2021/11/12 15:16:29;;;;;;;13.62;7.78;;;;;;;;;;143746;564;46027;-84
2021/11/12 15:19:00;;;;;;;14.57;11.30;;;;;;;;;;143744;570;47020;-85
2021/11/12 15:30:27;;;;;;;41.22;27.95;;;;;;;;;;143733;604;46021;-85
2021/11/12 15:33:06;;;;;;;49.88;36.00;;;;;;;;;;143743;594;46010;-85
2021/11/12 15:35:34;;;;;;;45.30;31.70;;;;;;;;;;143744;566;47019;-83
2021/11/12 15:38:16;;;;;;;54.13;34.33;;;;;;;;;;143749;577;46010;-83
2021/11/12 15:40:53;;;;;;;46.33;31.70;;;;;;;;;;143749;577;46010;-81
2021/11/12 15:43:27;;;;;;;48.00;29.02;;;;;;;;;;143747;571;45916;-83
2021/11/12 15:46:09;;;;;;;45.30;31.83;;;;;;;;;;143748;623;47018;-83
2021/11/12 15:48:41;;;;;;;45.33;32.42;;;;;;;;;;143750;596;45022;-85
2021/11/12 15:51:23;;;;;;;50.97;33.92;;;;;;;;;;143743;569;47019;-86
2021/11/12 15:54:13;;;;;;;48.45;34.28;;;;;;;;;;143744;575;46915;-85
2021/11/12 16:05:30;;;;;;;34.50;25.17;;;;;;;;;;143744;591;47022;-83
2021/11/12 16:11:18;;;;;;;41.92;25.67;;;;;;;;;;143746;610;46022;-84
2021/11/12 16:22:51;;;;;;;32.03;20.75;;;;;;;;;;143745;738;46020;-84
2021/11/12 16:25:21;;;;;;;33.60;23.05;;;;;;;;;;143745;593;47018;-84
2021/11/12 16:27:50;;;;;;;42.92;26.60;;;;;;;;;;143744;585;46010;-84
2021/11/12 16:30:21;;;;;;;38.17;26.77;;;;;;;;;;143745;598;47020;-85
2021/11/12 16:32:50;;;;;;;38.83;26.98;;;;;;;;;;143733;780;47014;-85
2021/11/12 16:35:21;;;;;;;33.75;23.65;;;;;;;;;;143743;665;47019;-84
2021/11/12 16:37:50;;;;;;;36.05;26.55;;;;;;;;;;143745;687;46010;-85
2021/11/12 16:40:25;;;;;;;43.67;26.60;;;;;;;;;;143744;681;47018;-85
2021/11/12 16:45:53;;;;;;;43.05;30.05;;;;;;;;;;143746;579;46010;-84
2021/11/12 16:51:39;;;;;;;42.03;28.90;;;;;;;;;;143745;821;46010;-86
2021/11/12 16:54:21;;;;;;;35.15;23.85;;;;;;;;;;143745;566;46022;-84
2021/11/12 17:02:39;;;;;;;33.72;24.25;;;;;;;;;;143745;593;47018;-85
2021/11/12 17:08:25;;;;;;;30.85;21.65;;;;;;;;;;143745;569;47022;-84
2021/11/12 17:14:22;;;;;;;37.67;26.12;;;;;;;;;;143744;630;48018;-84
2021/11/12 17:47:43;;;;;;;38.20;26.37;;;;;;;;;;143745;681;46018;-85
2021/11/12 17:53:33;;;;;;;125.00;91.22;;;;;;;;;;143743;579;47018;-85
2021/11/12 18:04:15;;;;;;;41.45;30.90;;;;;;;;;;143748;599;46018;-86
2021/11/12 18:10:09;;;;;;;43.13;30.83;;;;;;;;;;143746;823;47018;-86
2021/11/12 21:46:39;;;;;;;46.20;33.42;;;;;;;;;;143732;581;46024;-88
2021/11/12 21:49:07;;;;;;;47.92;30.67;;;;;;;;;;143729;565;47021;-88
2021/11/12 21:51:44;;;;;;;37.75;26.65;;;;;;;;;;143731;598;46022;-89
2021/11/12 21:54:15;;;;;;;35.42;26.30;;;;;;;;;;143731;576;46018;-88
2021/11/12 21:56:45;;;;;;;38.65;26.65;;;;;;;;;;143734;616;46020;-87
2021/11/12 21:59:13;;;;;;;36.47;27.08;;;;;;;;;;143732;573;47020;-89
2021/11/12 22:01:41;;;;;;;38.28;24.83;;;;;;;;;;143731;587;46012;-90
2021/11/12 22:04:09;;;;;;;36.50;25.67;;;;;;;;;;143731;565;47018;-88
2021/11/12 22:06:38;;;;;;;41.45;29.55;;;;;;;;;;143734;592;46012;-88
2021/11/12 22:09:07;;;;;;;33.05;23.60;;;;;;;;;;143731;593;47020;-89
2021/11/12 22:11:35;;;;;;;37.08;22.17;;;;;;;;;;143728;596;47023;-89
2021/11/12 22:14:04;;;;;;;36.45;21.87;;;;;;;;;;143727;597;47018;-88
2021/11/12 22:16:31;;;;;;;37.15;23.75;;;;;;;;;;143734;564;46013;-88
2021/11/12 22:18:58;;;;;;;36.03;22.90;;;;;;;;;;143731;618;47019;-87
2021/11/12 22:21:26;;;;;;;39.28;23.85;;;;;;;;;;143731;573;47022;-87
2021/11/12 22:23:53;;;;;;;31.23;22.58;;;;;;;;;;143733;590;47018;-90
2021/11/12 22:26:22;;;;;;;33.78;25.65;;;;;;;;;;143733;576;46013;-86
2021/11/12 22:28:54;;;;;;;34.40;25.25;;;;;;;;;;143731;655;47018;-89
2021/11/12 22:31:21;;;;;;;31.73;25.60;;;;;;;;;;143733;586;46012;-87
2021/11/12 22:33:48;;;;;;;35.13;28.45;;;;;;;;;;143729;583;47019;-88
2021/11/12 22:36:14;;;;;;;32.22;24.08;;;;;;;;;;143746;634;47022;-88
2021/11/12 22:38:42;;;;;;;29.05;21.25;;;;;;;;;;143745;617;47012;-87
2021/11/12 22:41:09;;;;;;;33.40;25.52;;;;;;;;;;143745;572;46915;-90
2021/11/12 22:43:36;;;;;;;51.20;35.47;;;;;;;;;;143748;564;46016;-87
2021/11/12 22:46:04;;;;;;;56.17;41.90;;;;;;;;;;143749;594;46022;-89
2021/11/12 22:48:31;;;;;;;63.13;44.13;;;;;;;;;;143747;567;47019;-88
2021/11/12 22:50:58;;;;;;;65.93;42.95;;;;;;;;;;143746;564;46010;-88
2021/11/12 22:53:26;;;;;;;48.13;36.83;;;;;;;;;;143745;565;47018;-88
2021/11/12 22:55:55;;;;;;;52.97;37.72;;;;;;;;;;143749;599;46023;-87
2021/11/12 22:58:23;;;;;;;46.40;32.58;;;;;;;;;;143746;585;47018;-88
2021/11/12 23:01:10;;;;;;;58.60;42.33;;;;;;;;;;143743;611;46916;-87
2021/11/12 23:03:37;;;;;;;65.03;45.42;;;;;;;;;;143745;569;47019;-88
2021/11/12 23:06:05;;;;;;;57.90;44.63;;;;;;;;;;143748;593;46022;-88
2021/11/12 23:08:32;;;;;;;61.10;45.55;;;;;;;;;;143747;602;47020;-88
2021/11/12 23:11:00;;;;;;;57.22;40.33;;;;;;;;;;143747;647;46010;-87
2021/11/12 23:13:28;;;;;;;50.12;36.63;;;;;;;;;;143734;569;47018;-85
2021/11/12 23:15:55;;;;;;;56.10;39.10;;;;;;;;;;143750;643;46010;-83
2021/11/12 23:18:28;;;;;;;57.17;37.67;;;;;;;;;;143750;570;46019;-83
2021/11/12 23:20:55;;;;;;;41.93;29.07;;;;;;;;;;143747;585;46010;-84
2021/11/12 23:23:34;;;;;;;33.65;23.05;;;;;;;;;;143748;570;47018;-89
2021/11/12 23:26:09;;;;;;;40.88;25.37;;;;;;;;;;143756;579;45023;-89
2021/11/12 23:28:55;;;;;;;32.08;23.30;;;;;;;;;;143753;581;45020;-89
2021/11/12 23:31:30;;;;;;;39.13;27.37;;;;;;;;;;143752;594;45916;-88
2021/11/12 23:34:01;;;;;;;32.43;23.37;;;;;;;;;;143748;578;46018;-88
2021/11/12 23:36:28;;;;;;;38.65;24.00;;;;;;;;;;143738;578;46012;-87
2021/11/12 23:39:05;;;;;;;36.35;26.17;;;;;;;;;;143731;595;47020;-88
2021/11/12 23:41:44;;;;;;;32.05;24.60;;;;;;;;;;143732;564;46012;-91
2021/11/12 23:44:20;;;;;;;37.25;25.10;;;;;;;;;;143731;602;47016;-88
2021/11/12 23:46:52;;;;;;;30.27;22.70;;;;;;;;;;143733;590;46016;-88
2021/11/12 23:49:19;;;;;;;29.33;23.00;;;;;;;;;;143730;583;47021;-88
2021/11/12 23:51:47;;;;;;;34.25;24.02;;;;;;;;;;143732;571;46012;-87
2021/11/12 23:54:18;;;;;;;33.05;24.58;;;;;;;;;;143728;639;47018;-88
2021/11/12 23:56:49;;;;;;;34.60;25.17;;;;;;;;;;143732;626;47012;-88
2021/11/12 23:59:18;;;;;;;35.40;24.95;;;;;;;;;;143730;608;47018;-89
